Willow Hill, Pennsylvania
Current Conditions -  °F | °C
As of 4:53 PM on Tuesday 25 Nov 2014 (Local Time) from KHGR Reporting Station
Clear Clear  
Wind Chill: 52°   Ceiling: Unl
Heat Index: 52°   Visibility: 10mi
Dew Point: 27°   Wind: 0mph
Humidity: 38%   Direction: NA
Pressure: 30.03"   Gusts: NA
Location:  40.11°N, 77.79°W
Report Text: KHGR 252153Z 00000KT 10SM CLR 11/M03 A3003 RMK AO2 SLP181 T01111028
Loading
Personal Weather Stations






























Interactive Weather Map New forecast layout! Learn more

10-Day Weather Forecast

Advertisements
Track Severe Weather on mobile